Time;durP1;ratioP1;P1;durP2;ratioP2;P2;SDS_P1;SDS_P2;PMS_P1;PMS_P2;Temp;Humidity;BMP_temperature;BMP_pressure;BME280_temperature;BME280_humidity;BME280_pressure;Samples;Min_cycle;Max_cycle;Signal;HPM_P1;HPM_P2
2022/03/11 00:01:43;;;;;;;10.55;8.77;;;;;;;;;;5012646;28;92507;-69
2022/03/11 00:04:29;;;;;;;12.55;9.07;;;;;;;;;;5013333;28;94968;-68
2022/03/11 00:06:56;;;;;;;12.65;8.68;;;;;;;;;;5013598;28;92485;-68
2022/03/11 00:09:22;;;;;;;20.15;8.95;;;;;;;;;;5013786;28;94076;-68
2022/03/11 00:11:48;;;;;;;10.00;9.00;;;;;;;;;;5012930;28;94123;-69
2022/03/11 00:14:15;;;;;;;9.77;8.57;;;;;;;;;;5013529;28;92515;-68
2022/03/11 00:16:41;;;;;;;14.60;8.68;;;;;;;;;;5011160;28;93045;-69
2022/03/11 00:19:08;;;;;;;11.90;9.30;;;;;;;;;;5012988;28;94098;-69
2022/03/11 00:21:34;;;;;;;17.25;8.75;;;;;;;;;;5013397;28;92169;-68
2022/03/11 00:24:01;;;;;;;12.10;8.27;;;;;;;;;;5013289;28;92698;-68
2022/03/11 00:26:28;;;;;;;9.95;8.27;;;;;;;;;;5014622;28;93204;-68
2022/03/11 00:28:54;;;;;;;10.95;8.85;;;;;;;;;;5011958;28;94864;-68
2022/03/11 00:31:21;;;;;;;15.07;9.13;;;;;;;;;;5011371;28;94596;-68
2022/03/11 00:33:47;;;;;;;12.07;8.38;;;;;;;;;;5011998;28;92409;-68
2022/03/11 00:36:13;;;;;;;14.10;10.07;;;;;;;;;;5011536;28;93977;-69
2022/03/11 00:38:40;;;;;;;10.38;8.93;;;;;;;;;;5012487;28;94205;-68
2022/03/11 00:41:06;;;;;;;11.55;9.82;;;;;;;;;;5011798;28;92608;-68
2022/03/11 00:43:32;;;;;;;12.00;9.55;;;;;;;;;;5013258;28;92973;-69
2022/03/11 00:45:59;;;;;;;12.70;8.90;;;;;;;;;;5012427;28;93405;-68
2022/03/11 00:48:25;;;;;;;13.63;8.65;;;;;;;;;;5014008;28;92435;-69
2022/03/11 00:50:52;;;;;;;12.85;9.07;;;;;;;;;;5012535;28;94212;-68
2022/03/11 00:53:18;;;;;;;9.70;7.97;;;;;;;;;;5008681;28;94945;-69
2022/03/11 00:55:44;;;;;;;10.82;9.50;;;;;;;;;;5013290;28;96254;-68
2022/03/11 00:58:11;;;;;;;14.27;8.27;;;;;;;;;;5011729;28;94451;-68
2022/03/11 01:00:37;;;;;;;10.15;8.60;;;;;;;;;;5012308;28;92436;-69
2022/03/11 01:03:04;;;;;;;11.70;9.02;;;;;;;;;;5009673;28;95437;-69
2022/03/11 01:05:52;;;;;;;14.68;8.73;;;;;;;;;;5008430;28;92803;-68
2022/03/11 01:08:18;;;;;;;9.82;8.02;;;;;;;;;;5014263;28;92976;-69
2022/03/11 01:10:45;;;;;;;13.73;9.98;;;;;;;;;;5013063;28;93414;-68
2022/03/11 01:13:11;;;;;;;13.55;9.20;;;;;;;;;;5010343;28;92615;-67
2022/03/11 01:15:37;;;;;;;10.63;9.05;;;;;;;;;;5012076;28;94039;-68
2022/03/11 01:18:04;;;;;;;13.60;8.85;;;;;;;;;;5010001;28;96331;-68
2022/03/11 01:20:30;;;;;;;11.48;8.82;;;;;;;;;;5010814;28;92429;-68
2022/03/11 01:22:57;;;;;;;10.98;8.77;;;;;;;;;;5011968;28;93958;-68
2022/03/11 01:25:23;;;;;;;9.20;7.63;;;;;;;;;;5011520;28;94200;-68
2022/03/11 01:27:49;;;;;;;14.45;8.82;;;;;;;;;;5012725;28;92489;-68
2022/03/11 01:30:16;;;;;;;10.80;8.52;;;;;;;;;;5013997;28;93810;-68
2022/03/11 01:32:43;;;;;;;10.52;8.68;;;;;;;;;;5012554;28;92504;-68
2022/03/11 01:35:11;;;;;;;11.85;8.70;;;;;;;;;;5011500;28;94492;-68
2022/03/11 01:37:39;;;;;;;15.27;8.80;;;;;;;;;;5007291;28;93967;-68
2022/03/11 01:40:06;;;;;;;11.65;8.95;;;;;;;;;;5011757;28;92514;-69
2022/03/11 01:42:34;;;;;;;18.48;9.05;;;;;;;;;;5010169;28;94922;-68
2022/03/11 01:45:00;;;;;;;12.20;9.43;;;;;;;;;;5011805;28;93615;-68
2022/03/11 01:47:27;;;;;;;13.77;8.90;;;;;;;;;;5011912;28;92460;-68
2022/03/11 01:49:53;;;;;;;13.18;9.25;;;;;;;;;;5011667;28;95573;-69
2022/03/11 01:52:20;;;;;;;21.58;10.98;;;;;;;;;;5012884;28;94039;-69
2022/03/11 01:54:46;;;;;;;10.55;9.10;;;;;;;;;;5011706;28;93296;-69
2022/03/11 01:57:13;;;;;;;17.08;9.70;;;;;;;;;;5009795;28;94202;-68
2022/03/11 01:59:41;;;;;;;14.93;9.00;;;;;;;;;;5013096;28;91820;-69
2022/03/11 02:02:07;;;;;;;12.80;10.15;;;;;;;;;;5011784;27;92978;-70
2022/03/11 02:04:34;;;;;;;20.73;10.65;;;;;;;;;;5011608;28;94728;-70
2022/03/11 02:07:00;;;;;;;13.20;9.65;;;;;;;;;;5011945;28;94957;-70
2022/03/11 02:09:27;;;;;;;16.75;11.38;;;;;;;;;;5014235;28;95557;-69
2022/03/11 02:11:53;;;;;;;17.30;11.00;;;;;;;;;;5014422;28;94151;-69
2022/03/11 02:14:19;;;;;;;12.20;10.18;;;;;;;;;;5017209;28;92646;-69
2022/03/11 02:16:46;;;;;;;17.33;10.02;;;;;;;;;;5015030;28;94205;-69
2022/03/11 02:19:12;;;;;;;20.00;10.68;;;;;;;;;;5013182;28;92982;-69
2022/03/11 02:21:43;;;;;;;13.88;10.57;;;;;;;;;;5015012;28;93258;-69
2022/03/11 02:24:12;;;;;;;11.75;10.02;;;;;;;;;;5013560;28;93360;-70
2022/03/11 02:26:38;;;;;;;11.23;9.38;;;;;;;;;;5013919;28;92577;-69
2022/03/11 02:29:05;;;;;;;16.38;10.68;;;;;;;;;;5015301;28;94010;-69
2022/03/11 02:31:32;;;;;;;28.00;10.48;;;;;;;;;;5013104;28;96167;-68
2022/03/11 02:34:00;;;;;;;15.30;10.63;;;;;;;;;;5014061;28;92562;-69
2022/03/11 02:36:27;;;;;;;13.43;10.30;;;;;;;;;;5017812;28;92503;-68
2022/03/11 02:38:53;;;;;;;15.60;10.07;;;;;;;;;;5012762;28;93939;-68
2022/03/11 02:41:22;;;;;;;16.48;10.40;;;;;;;;;;5013112;28;93830;-68
2022/03/11 02:43:48;;;;;;;13.95;10.18;;;;;;;;;;5013737;28;94331;-68
2022/03/11 02:46:14;;;;;;;12.73;10.38;;;;;;;;;;5013117;28;92984;-69
2022/03/11 02:48:42;;;;;;;15.60;10.93;;;;;;;;;;5014218;28;93136;-68
2022/03/11 02:51:08;;;;;;;14.20;10.40;;;;;;;;;;5013488;28;93191;-68
2022/03/11 02:53:40;;;;;;;13.27;10.98;;;;;;;;;;5013982;28;92608;-69
2022/03/11 02:56:08;;;;;;;15.50;11.15;;;;;;;;;;5011384;28;94895;-68
2022/03/11 02:58:35;;;;;;;11.73;9.45;;;;;;;;;;5017303;28;94479;-68
2022/03/11 03:01:02;;;;;;;13.18;10.50;;;;;;;;;;5013606;28;93136;-69
2022/03/11 03:03:29;;;;;;;13.60;10.63;;;;;;;;;;5013533;28;94351;-68
2022/03/11 03:05:55;;;;;;;13.60;10.13;;;;;;;;;;5014217;28;92436;-68
2022/03/11 03:08:22;;;;;;;15.65;10.57;;;;;;;;;;5013457;28;93910;-68
2022/03/11 03:10:48;;;;;;;17.08;10.90;;;;;;;;;;5013181;28;93534;-69
2022/03/11 03:13:14;;;;;;;13.23;9.65;;;;;;;;;;5013431;28;92690;-68
2022/03/11 03:15:41;;;;;;;16.38;10.30;;;;;;;;;;5012260;28;93116;-68
2022/03/11 03:18:07;;;;;;;20.52;11.13;;;;;;;;;;5016989;28;93440;-68
2022/03/11 03:20:34;;;;;;;17.92;10.90;;;;;;;;;;5012042;28;95848;-69
2022/03/11 03:23:00;;;;;;;12.15;9.93;;;;;;;;;;5013351;28;93424;-69
2022/03/11 03:25:26;;;;;;;15.27;10.75;;;;;;;;;;5013262;28;93317;-69
2022/03/11 03:27:53;;;;;;;13.95;10.63;;;;;;;;;;5011896;28;93077;-68
2022/03/11 03:30:19;;;;;;;15.23;10.55;;;;;;;;;;5013428;28;94195;-68
2022/03/11 03:32:45;;;;;;;15.15;10.27;;;;;;;;;;5014234;28;92459;-68
2022/03/11 03:35:12;;;;;;;13.90;9.60;;;;;;;;;;5012484;28;93180;-68
2022/03/11 03:37:39;;;;;;;19.85;10.35;;;;;;;;;;5015258;28;92880;-69
2022/03/11 03:40:06;;;;;;;14.38;10.15;;;;;;;;;;5016380;28;92523;-69
2022/03/11 03:42:33;;;;;;;14.30;9.52;;;;;;;;;;5012783;28;93475;-69
2022/03/11 03:44:59;;;;;;;12.48;9.68;;;;;;;;;;5011225;28;96342;-69
2022/03/11 03:47:25;;;;;;;13.40;10.18;;;;;;;;;;5014108;28;96445;-69
2022/03/11 03:49:52;;;;;;;14.57;9.80;;;;;;;;;;5011896;28;94319;-69
2022/03/11 03:52:18;;;;;;;15.20;9.68;;;;;;;;;;5014110;28;92460;-69
2022/03/11 03:54:44;;;;;;;11.35;9.18;;;;;;;;;;5013119;28;93971;-69
2022/03/11 03:57:11;;;;;;;12.80;9.65;;;;;;;;;;5012274;28;94342;-69
2022/03/11 03:59:39;;;;;;;18.42;10.15;;;;;;;;;;5012480;28;93406;-69
2022/03/11 04:02:06;;;;;;;15.43;11.25;;;;;;;;;;5015910;28;93876;-69
2022/03/11 04:04:33;;;;;;;12.55;10.18;;;;;;;;;;5011063;28;92694;-69
2022/03/11 04:06:59;;;;;;;12.95;10.32;;;;;;;;;;5013168;28;92967;-69
2022/03/11 04:09:25;;;;;;;17.67;9.98;;;;;;;;;;5010330;28;95795;-69
2022/03/11 04:11:52;;;;;;;15.40;11.00;;;;;;;;;;5012739;28;92426;-69
2022/03/11 04:14:18;;;;;;;14.27;10.45;;;;;;;;;;5012343;28;93371;-69
2022/03/11 04:16:44;;;;;;;12.60;8.60;;;;;;;;;;5011705;28;94420;-69
2022/03/11 04:19:11;;;;;;;13.85;10.57;;;;;;;;;;5013187;28;92682;-69
2022/03/11 04:21:37;;;;;;;13.45;10.13;;;;;;;;;;5012340;28;94277;-69
2022/03/11 04:24:05;;;;;;;17.25;10.25;;;;;;;;;;5015206;28;94304;-68
2022/03/11 04:26:32;;;;;;;15.23;10.05;;;;;;;;;;5012062;28;92993;-68
2022/03/11 04:28:58;;;;;;;13.63;10.10;;;;;;;;;;5012728;28;93829;-68
2022/03/11 04:31:25;;;;;;;12.75;10.30;;;;;;;;;;5011293;28;93094;-68
2022/03/11 04:33:51;;;;;;;13.60;10.48;;;;;;;;;;5010819;28;94914;-68
2022/03/11 04:36:18;;;;;;;11.38;10.00;;;;;;;;;;5011539;28;94637;-68
2022/03/11 04:38:44;;;;;;;17.38;10.18;;;;;;;;;;5012169;28;92750;-68
2022/03/11 04:41:10;;;;;;;17.40;10.70;;;;;;;;;;5011039;28;94049;-68
2022/03/11 04:43:37;;;;;;;13.38;10.23;;;;;;;;;;5012506;28;93415;-68
2022/03/11 04:46:03;;;;;;;19.70;10.18;;;;;;;;;;5014730;28;92924;-68
2022/03/11 04:48:31;;;;;;;13.70;10.15;;;;;;;;;;5011241;28;93287;-68
2022/03/11 04:50:57;;;;;;;19.80;11.52;;;;;;;;;;5012569;28;91708;-68
2022/03/11 04:53:24;;;;;;;21.58;10.93;;;;;;;;;;5012314;28;94321;-68
2022/03/11 04:55:50;;;;;;;11.95;10.20;;;;;;;;;;5012303;28;94252;-68
2022/03/11 04:58:17;;;;;;;20.50;9.43;;;;;;;;;;5010610;28;94932;-68
2022/03/11 05:00:43;;;;;;;14.88;9.43;;;;;;;;;;5012225;28;95440;-68
2022/03/11 05:03:10;;;;;;;12.38;8.82;;;;;;;;;;5011444;28;93361;-68
2022/03/11 05:05:36;;;;;;;14.70;9.93;;;;;;;;;;5012368;28;92494;-68
2022/03/11 05:08:03;;;;;;;19.75;9.48;;;;;;;;;;5014911;28;93998;-68
2022/03/11 05:10:29;;;;;;;14.45;10.23;;;;;;;;;;5012967;28;93682;-70
2022/03/11 05:12:55;;;;;;;14.48;8.35;;;;;;;;;;5012488;28;94038;-68
2022/03/11 05:15:24;;;;;;;11.13;9.57;;;;;;;;;;5011764;28;93391;-69
2022/03/11 05:17:51;;;;;;;11.70;9.63;;;;;;;;;;5013469;28;92482;-69
2022/03/11 05:20:17;;;;;;;12.15;9.32;;;;;;;;;;5009557;28;92833;-69
2022/03/11 05:22:44;;;;;;;15.15;9.13;;;;;;;;;;5010894;28;96719;-69
2022/03/11 05:25:10;;;;;;;11.98;9.82;;;;;;;;;;5011805;28;92479;-69
2022/03/11 05:27:37;;;;;;;14.57;9.95;;;;;;;;;;5015174;28;93151;-69
2022/03/11 05:30:05;;;;;;;16.10;9.45;;;;;;;;;;5011240;28;92623;-68
2022/03/11 05:32:31;;;;;;;15.25;11.18;;;;;;;;;;5013104;28;93139;-69
2022/03/11 05:34:58;;;;;;;12.15;9.30;;;;;;;;;;5009920;28;94847;-69
2022/03/11 05:37:24;;;;;;;11.60;8.95;;;;;;;;;;5011467;28;92829;-69
2022/03/11 05:39:51;;;;;;;20.23;10.50;;;;;;;;;;5015268;28;93947;-69
2022/03/11 05:42:17;;;;;;;12.02;9.82;;;;;;;;;;5013968;28;93474;-69
2022/03/11 05:44:44;;;;;;;14.30;9.63;;;;;;;;;;5016186;28;92493;-69
2022/03/11 05:47:10;;;;;;;13.77;9.23;;;;;;;;;;5013276;28;94829;-69
2022/03/11 05:49:37;;;;;;;15.75;10.05;;;;;;;;;;5019276;27;93308;-69
2022/03/11 05:52:03;;;;;;;9.80;8.82;;;;;;;;;;5014095;28;94372;-69
2022/03/11 05:54:30;;;;;;;14.35;9.40;;;;;;;;;;5015944;28;94225;-69
2022/03/11 05:57:02;;;;;;;15.65;9.85;;;;;;;;;;5015041;28;92495;-69
2022/03/11 05:59:32;;;;;;;13.43;9.60;;;;;;;;;;5015889;28;93987;-69
2022/03/11 06:01:58;;;;;;;14.93;10.07;;;;;;;;;;5014498;28;93861;-69
2022/03/11 06:04:30;;;;;;;13.25;9.30;;;;;;;;;;5014102;28;92255;-69
2022/03/11 06:06:56;;;;;;;16.58;9.23;;;;;;;;;;5015319;28;92457;-69
2022/03/11 06:09:23;;;;;;;18.10;11.27;;;;;;;;;;5014749;28;94502;-69
2022/03/11 06:11:49;;;;;;;10.02;8.98;;;;;;;;;;5015844;28;95546;-69
2022/03/11 06:14:22;;;;;;;12.00;9.73;;;;;;;;;;5014978;28;94062;-69
2022/03/11 06:16:48;;;;;;;13.00;10.00;;;;;;;;;;5015179;28;92785;-69
2022/03/11 06:19:15;;;;;;;12.85;9.68;;;;;;;;;;5014207;28;94022;-69
2022/03/11 06:21:41;;;;;;;15.18;9.55;;;;;;;;;;5015179;28;93612;-69
2022/03/11 06:24:07;;;;;;;11.60;9.88;;;;;;;;;;5013561;28;93749;-69
2022/03/11 06:26:34;;;;;;;10.30;9.20;;;;;;;;;;5015884;28;94109;-69
2022/03/11 06:29:00;;;;;;;13.55;10.32;;;;;;;;;;5015429;28;93839;-69
2022/03/11 06:31:26;;;;;;;15.13;10.77;;;;;;;;;;5014080;28;92780;-69
2022/03/11 06:33:54;;;;;;;12.57;9.82;;;;;;;;;;5017120;28;92906;-69
2022/03/11 06:36:20;;;;;;;10.93;8.95;;;;;;;;;;5013794;28;94873;-69
2022/03/11 06:38:47;;;;;;;16.60;9.55;;;;;;;;;;5014234;28;95471;-69
2022/03/11 06:41:13;;;;;;;12.30;9.73;;;;;;;;;;5013842;27;93438;-69
2022/03/11 06:43:39;;;;;;;13.60;10.77;;;;;;;;;;5014911;28;93032;-69
2022/03/11 06:46:07;;;;;;;10.77;9.52;;;;;;;;;;5013925;28;93189;-69
2022/03/11 06:48:34;;;;;;;10.48;9.05;;;;;;;;;;5014151;28;94196;-70
2022/03/11 06:51:04;;;;;;;11.90;8.80;;;;;;;;;;5015231;28;92485;-69
2022/03/11 06:53:32;;;;;;;13.07;10.68;;;;;;;;;;5013653;28;93108;-69
2022/03/11 06:56:00;;;;;;;9.52;8.57;;;;;;;;;;5015884;28;94173;-69
2022/03/11 06:58:27;;;;;;;10.82;9.52;;;;;;;;;;5007604;28;93852;-69
2022/03/11 07:00:53;;;;;;;18.88;9.40;;;;;;;;;;5010556;28;96068;-69
2022/03/11 07:03:20;;;;;;;19.00;9.90;;;;;;;;;;5014762;28;92435;-70
2022/03/11 07:05:47;;;;;;;14.07;10.23;;;;;;;;;;5013611;28;92836;-72
2022/03/11 07:08:15;;;;;;;10.70;9.27;;;;;;;;;;5014241;28;94302;-70
2022/03/11 07:10:41;;;;;;;10.48;9.07;;;;;;;;;;5013902;28;92551;-69
2022/03/11 07:13:09;;;;;;;15.50;10.57;;;;;;;;;;5012383;28;93205;-69
2022/03/11 07:15:38;;;;;;;14.30;10.75;;;;;;;;;;5013486;28;93392;-69
2022/03/11 07:18:04;;;;;;;13.80;10.05;;;;;;;;;;5017054;28;91712;-69
2022/03/11 07:20:31;;;;;;;18.05;10.27;;;;;;;;;;5013054;28;92532;-69
2022/03/11 07:23:17;;;;;;;16.38;10.18;;;;;;;;;;5013002;28;92563;-69
2022/03/11 07:25:44;;;;;;;19.88;10.10;;;;;;;;;;5017086;28;95334;-69
2022/03/11 07:28:11;;;;;;;14.70;9.85;;;;;;;;;;5011693;28;93518;-70
2022/03/11 07:30:38;;;;;;;15.05;9.30;;;;;;;;;;5012923;28;93711;-70
2022/03/11 07:33:06;;;;;;;15.70;10.07;;;;;;;;;;5014153;28;93055;-69
2022/03/11 07:35:32;;;;;;;14.02;10.00;;;;;;;;;;5010555;28;94281;-69
2022/03/11 07:38:00;;;;;;;19.33;9.55;;;;;;;;;;5012075;28;94311;-69
2022/03/11 07:40:27;;;;;;;13.75;10.30;;;;;;;;;;5012663;28;93633;-68
2022/03/11 07:42:53;;;;;;;17.35;11.07;;;;;;;;;;5019415;28;91895;-70
2022/03/11 07:45:20;;;;;;;18.10;10.95;;;;;;;;;;5012720;28;94495;-69
2022/03/11 07:47:46;;;;;;;16.40;8.65;;;;;;;;;;5013692;28;94210;-69
2022/03/11 07:50:12;;;;;;;13.63;10.95;;;;;;;;;;5012054;28;95202;-69
2022/03/11 07:52:39;;;;;;;14.05;10.65;;;;;;;;;;5012584;28;96426;-69
2022/03/11 07:55:07;;;;;;;15.68;11.48;;;;;;;;;;5010886;27;93325;-69
2022/03/11 07:57:35;;;;;;;15.23;9.98;;;;;;;;;;5033395;27;92526;-69
2022/03/11 08:00:04;;;;;;;12.93;9.88;;;;;;;;;;5017126;27;93136;-69
2022/03/11 08:02:39;;;;;;;13.27;10.27;;;;;;;;;;5011599;28;92393;-69
2022/03/11 08:05:06;;;;;;;16.08;10.13;;;;;;;;;;5013550;28;93145;-69
2022/03/11 08:07:34;;;;;;;16.42;10.98;;;;;;;;;;5013732;28;92487;-69
2022/03/11 08:10:00;;;;;;;10.27;8.95;;;;;;;;;;5013202;28;92600;-69
2022/03/11 08:12:27;;;;;;;18.42;10.52;;;;;;;;;;5013115;28;93447;-69
2022/03/11 08:14:53;;;;;;;12.60;9.77;;;;;;;;;;5010630;28;94795;-70
2022/03/11 08:17:19;;;;;;;14.95;10.40;;;;;;;;;;4996359;28;92873;-69
2022/03/11 08:19:47;;;;;;;14.07;10.98;;;;;;;;;;4993215;28;92958;-69
2022/03/11 08:22:14;;;;;;;13.82;10.20;;;;;;;;;;4996023;28;94149;-69
2022/03/11 08:24:41;;;;;;;19.20;10.98;;;;;;;;;;4992848;28;93262;-69
2022/03/11 08:27:08;;;;;;;17.42;11.18;;;;;;;;;;5012762;28;93402;-69
2022/03/11 08:29:34;;;;;;;17.38;12.18;;;;;;;;;;5013141;28;92476;-68
2022/03/11 08:32:03;;;;;;;15.77;13.43;;;;;;;;;;5012966;28;93038;-68
2022/03/11 08:34:30;;;;;;;15.85;10.50;;;;;;;;;;5012541;28;94908;-68
2022/03/11 08:37:16;;;;;;;19.27;12.45;;;;;;;;;;5012277;28;92475;-69
2022/03/11 08:39:42;;;;;;;19.27;11.02;;;;;;;;;;5011823;28;94770;-69
2022/03/11 08:42:09;;;;;;;15.32;11.13;;;;;;;;;;5013192;28;93434;-69
2022/03/11 08:44:35;;;;;;;18.23;11.20;;;;;;;;;;5015338;28;92456;-69
2022/03/11 08:47:02;;;;;;;16.23;10.60;;;;;;;;;;5012783;28;93502;-69
2022/03/11 08:49:28;;;;;;;16.00;11.80;;;;;;;;;;5012680;28;92433;-69
2022/03/11 08:51:54;;;;;;;17.25;12.45;;;;;;;;;;5012079;28;94223;-69
2022/03/11 08:54:21;;;;;;;26.08;11.68;;;;;;;;;;5012388;28;94274;-69
2022/03/11 08:56:47;;;;;;;19.92;11.93;;;;;;;;;;5013399;28;91721;-69
2022/03/11 08:59:14;;;;;;;16.80;10.38;;;;;;;;;;5011793;28;93286;-68
2022/03/11 09:01:42;;;;;;;15.38;11.48;;;;;;;;;;5012430;28;93192;-69
2022/03/11 09:04:08;;;;;;;17.63;11.65;;;;;;;;;;5011023;28;95254;-69
2022/03/11 09:06:35;;;;;;;22.85;11.02;;;;;;;;;;5014463;28;96832;-68
2022/03/11 09:09:01;;;;;;;16.02;11.63;;;;;;;;;;5012745;28;92449;-69
2022/03/11 09:11:28;;;;;;;15.93;10.68;;;;;;;;;;5012356;28;93551;-69
2022/03/11 09:13:54;;;;;;;16.15;11.77;;;;;;;;;;5010788;28;93308;-69
2022/03/11 09:16:20;;;;;;;22.02;12.15;;;;;;;;;;5012026;28;92521;-69
2022/03/11 09:18:47;;;;;;;14.25;10.95;;;;;;;;;;5012487;28;94167;-69
2022/03/11 09:21:14;;;;;;;14.93;10.73;;;;;;;;;;5012066;28;92626;-68
2022/03/11 09:23:40;;;;;;;19.10;11.68;;;;;;;;;;5012972;28;92455;-69
2022/03/11 09:26:07;;;;;;;12.10;10.88;;;;;;;;;;5015559;28;93116;-69
2022/03/11 09:28:33;;;;;;;16.30;12.18;;;;;;;;;;5009925;28;94827;-69
2022/03/11 09:31:01;;;;;;;22.00;11.20;;;;;;;;;;5011968;28;96536;-67
2022/03/11 09:33:27;;;;;;;15.50;12.15;;;;;;;;;;5011319;28;93323;-67
2022/03/11 09:35:54;;;;;;;17.83;11.85;;;;;;;;;;5011932;28;93020;-67
2022/03/11 09:38:20;;;;;;;14.02;12.20;;;;;;;;;;5011971;28;93217;-67
2022/03/11 09:40:48;;;;;;;16.15;12.15;;;;;;;;;;5011681;28;94251;-69
2022/03/11 09:43:15;;;;;;;13.43;11.82;;;;;;;;;;5011249;28;92465;-67
2022/03/11 09:45:42;;;;;;;22.48;13.00;;;;;;;;;;5013017;28;93017;-67
2022/03/11 09:48:09;;;;;;;14.55;12.50;;;;;;;;;;5014770;28;93201;-67
2022/03/11 09:50:41;;;;;;;17.77;12.52;;;;;;;;;;5012656;28;93162;-67
2022/03/11 09:53:07;;;;;;;24.85;12.70;;;;;;;;;;5010480;28;96022;-67
2022/03/11 09:55:34;;;;;;;19.67;13.10;;;;;;;;;;5011169;28;93237;-67
2022/03/11 09:58:00;;;;;;;20.45;12.00;;;;;;;;;;5011857;28;93957;-67
2022/03/11 10:00:26;;;;;;;15.70;10.82;;;;;;;;;;5009814;28;93565;-67
2022/03/11 10:02:55;;;;;;;15.02;11.90;;;;;;;;;;5009538;28;92500;-67
2022/03/11 10:05:22;;;;;;;34.55;13.85;;;;;;;;;;5009970;28;93553;-67
2022/03/11 10:08:00;;;;;;;18.80;11.65;;;;;;;;;;5011682;28;94182;-67
2022/03/11 10:10:28;;;;;;;15.02;11.88;;;;;;;;;;5014249;28;91756;-68
2022/03/11 10:13:11;;;;;;;20.55;12.10;;;;;;;;;;5011361;28;94063;-67
2022/03/11 10:15:39;;;;;;;15.48;12.65;;;;;;;;;;5010605;28;92705;-67
2022/03/11 10:18:09;;;;;;;24.13;13.05;;;;;;;;;;5010078;28;95335;-67
2022/03/11 10:20:36;;;;;;;23.10;12.85;;;;;;;;;;5010874;28;93691;-67
2022/03/11 10:23:09;;;;;;;19.60;13.95;;;;;;;;;;5011351;28;92442;-67
2022/03/11 10:25:35;;;;;;;20.80;13.50;;;;;;;;;;5012611;28;93984;-67
2022/03/11 10:28:04;;;;;;;14.63;11.35;;;;;;;;;;5014946;28;94109;-67
2022/03/11 10:30:32;;;;;;;22.10;13.38;;;;;;;;;;5014462;28;92793;-67
2022/03/11 10:33:00;;;;;;;26.23;13.55;;;;;;;;;;5018367;28;93719;-67
2022/03/11 10:35:29;;;;;;;15.85;13.55;;;;;;;;;;5015451;28;91729;-67
2022/03/11 10:38:00;;;;;;;17.33;11.75;;;;;;;;;;5014450;28;92746;-66
2022/03/11 10:40:31;;;;;;;22.17;12.98;;;;;;;;;;5014316;28;94191;-67
2022/03/11 10:43:07;;;;;;;15.07;11.80;;;;;;;;;;5013061;28;95150;-67
2022/03/11 10:46:03;;;;;;;23.35;12.75;;;;;;;;;;5013732;28;97171;-67
2022/03/11 10:48:42;;;;;;;19.92;13.48;;;;;;;;;;5009794;28;93187;-68
2022/03/11 10:51:10;;;;;;;22.75;13.77;;;;;;;;;;5014101;28;92526;-68
2022/03/11 10:53:36;;;;;;;14.38;12.45;;;;;;;;;;5014520;28;94489;-68
2022/03/11 10:56:06;;;;;;;21.75;14.43;;;;;;;;;;5017473;28;94419;-68
2022/03/11 10:58:33;;;;;;;18.35;13.25;;;;;;;;;;5013617;28;93065;-68
2022/03/11 11:00:59;;;;;;;22.98;13.25;;;;;;;;;;5014840;28;93425;-68
2022/03/11 11:03:26;;;;;;;16.27;12.63;;;;;;;;;;5013973;28;92343;-68
2022/03/11 11:05:52;;;;;;;17.65;13.05;;;;;;;;;;5013437;28;93884;-68
2022/03/11 11:08:19;;;;;;;17.25;14.00;;;;;;;;;;5012735;28;96812;-68
2022/03/11 11:10:45;;;;;;;17.30;13.45;;;;;;;;;;5014241;28;92498;-68
2022/03/11 11:13:12;;;;;;;18.35;13.88;;;;;;;;;;5013349;28;94097;-68
2022/03/11 11:15:39;;;;;;;17.50;13.68;;;;;;;;;;5014446;28;93123;-68
2022/03/11 11:18:12;;;;;;;20.55;13.73;;;;;;;;;;5017366;28;92507;-68
2022/03/11 11:20:41;;;;;;;18.77;14.57;;;;;;;;;;5013683;28;93157;-68
2022/03/11 11:23:08;;;;;;;19.63;14.15;;;;;;;;;;5013934;28;92437;-68
2022/03/11 11:25:36;;;;;;;15.90;13.63;;;;;;;;;;5014720;28;94232;-68
2022/03/11 11:28:05;;;;;;;18.98;15.13;;;;;;;;;;5013244;28;94443;-68
2022/03/11 11:30:32;;;;;;;20.38;15.52;;;;;;;;;;5013749;28;92437;-68
2022/03/11 11:32:59;;;;;;;14.98;12.32;;;;;;;;;;5011431;28;94890;-68
2022/03/11 11:35:27;;;;;;;23.42;13.93;;;;;;;;;;5013652;28;93985;-68
2022/03/11 11:37:54;;;;;;;18.92;14.52;;;;;;;;;;5015979;28;92512;-68
2022/03/11 11:40:26;;;;;;;21.42;13.15;;;;;;;;;;5013217;28;93568;-68
2022/03/11 11:43:28;;;;;;;15.75;13.20;;;;;;;;;;5013822;28;92487;-68
2022/03/11 11:45:56;;;;;;;19.70;13.93;;;;;;;;;;5013751;28;94445;-68
2022/03/11 11:48:33;;;;;;;22.92;13.70;;;;;;;;;;5012841;28;93175;-68
2022/03/11 11:51:00;;;;;;;19.77;13.15;;;;;;;;;;5014498;28;91745;-68
2022/03/11 11:53:37;;;;;;;25.00;12.98;;;;;;;;;;5013803;28;92871;-67
2022/03/11 11:56:22;;;;;;;13.95;10.95;;;;;;;;;;5010953;28;94410;-68
2022/03/11 11:58:50;;;;;;;21.38;13.98;;;;;;;;;;5010827;28;94965;-68
2022/03/11 12:01:40;;;;;;;20.13;15.02;;;;;;;;;;5015330;28;95356;-68
2022/03/11 12:04:25;;;;;;;19.70;13.95;;;;;;;;;;5013734;28;92467;-68
2022/03/11 12:07:02;;;;;;;16.38;13.32;;;;;;;;;;5013252;28;94362;-68
2022/03/11 12:09:37;;;;;;;22.08;13.70;;;;;;;;;;5012517;28;94351;-68
2022/03/11 12:12:06;;;;;;;27.33;14.27;;;;;;;;;;5013923;28;92959;-69
2022/03/11 12:14:53;;;;;;;17.85;14.30;;;;;;;;;;5013367;28;93454;-68
2022/03/11 12:17:38;;;;;;;16.83;13.00;;;;;;;;;;5022241;27;92987;-68
2022/03/11 12:20:23;;;;;;;27.85;15.65;;;;;;;;;;5033458;27;92452;-68
2022/03/11 12:22:52;;;;;;;21.30;14.95;;;;;;;;;;5012091;27;94637;-68
2022/03/11 12:25:22;;;;;;;16.73;12.85;;;;;;;;;;5014411;28;96381;-68
2022/03/11 12:28:03;;;;;;;18.83;16.08;;;;;;;;;;5013155;28;95561;-68
2022/03/11 12:30:31;;;;;;;21.15;14.60;;;;;;;;;;5012040;28;94225;-68
2022/03/11 12:33:02;;;;;;;14.57;12.75;;;;;;;;;;5013380;28;92438;-68
2022/03/11 12:35:28;;;;;;;20.23;13.70;;;;;;;;;;5012539;28;93245;-68
2022/03/11 12:37:55;;;;;;;18.25;13.35;;;;;;;;;;5012423;28;94214;-68
2022/03/11 12:40:22;;;;;;;25.58;15.35;;;;;;;;;;5012605;28;92412;-68
2022/03/11 12:42:49;;;;;;;18.30;13.85;;;;;;;;;;5013403;28;93828;-68
2022/03/11 12:45:32;;;;;;;20.73;13.23;;;;;;;;;;5011813;28;94067;-67
2022/03/11 12:47:58;;;;;;;12.35;10.85;;;;;;;;;;5015606;28;92495;-68
2022/03/11 12:50:26;;;;;;;17.05;11.55;;;;;;;;;;5008633;28;96780;-67
2022/03/11 12:52:56;;;;;;;22.23;14.45;;;;;;;;;;5001183;28;94209;-67
2022/03/11 12:55:23;;;;;;;23.65;14.80;;;;;;;;;;5011754;27;92470;-67
2022/03/11 12:57:53;;;;;;;19.60;15.15;;;;;;;;;;4998806;28;93890;-67
2022/03/11 13:00:19;;;;;;;17.88;14.13;;;;;;;;;;4992840;28;92521;-67
2022/03/11 13:02:49;;;;;;;21.75;14.10;;;;;;;;;;5003815;28;93043;-67
2022/03/11 13:05:17;;;;;;;18.77;15.23;;;;;;;;;;5000222;28;94511;-67
2022/03/11 13:07:43;;;;;;;20.35;14.20;;;;;;;;;;5012948;28;91721;-67
2022/03/11 13:10:14;;;;;;;30.70;16.67;;;;;;;;;;5014556;28;94350;-67
2022/03/11 13:12:43;;;;;;;17.35;13.18;;;;;;;;;;5011961;28;92477;-67
2022/03/11 13:15:10;;;;;;;22.90;15.52;;;;;;;;;;5010017;28;94873;-67
2022/03/11 13:17:41;;;;;;;17.08;14.57;;;;;;;;;;5010491;28;94321;-67
2022/03/11 13:20:07;;;;;;;20.95;14.35;;;;;;;;;;5009781;28;92468;-67
2022/03/11 13:22:34;;;;;;;18.77;14.10;;;;;;;;;;5010799;28;95628;-67
2022/03/11 13:25:02;;;;;;;20.50;15.05;;;;;;;;;;5023887;28;93638;-67
2022/03/11 13:27:35;;;;;;;16.45;12.88;;;;;;;;;;5014265;27;92614;-67
2022/03/11 13:30:05;;;;;;;40.28;15.93;;;;;;;;;;5012315;28;94358;-67
2022/03/11 13:32:32;;;;;;;16.58;14.07;;;;;;;;;;5013685;28;94949;-67
2022/03/11 13:34:58;;;;;;;18.77;15.57;;;;;;;;;;5010640;28;93387;-68
2022/03/11 13:37:24;;;;;;;18.42;13.98;;;;;;;;;;5011650;28;93457;-67
2022/03/11 13:40:09;;;;;;;18.23;12.52;;;;;;;;;;5008820;28;94854;-68
2022/03/11 13:42:36;;;;;;;17.92;15.18;;;;;;;;;;5005494;28;96370;-67
2022/03/11 13:45:06;;;;;;;14.70;12.77;;;;;;;;;;4995921;28;93648;-67
2022/03/11 13:47:33;;;;;;;24.40;14.10;;;;;;;;;;5006159;28;93038;-68
2022/03/11 13:50:06;;;;;;;21.40;13.93;;;;;;;;;;4997727;28;93843;-68
2022/03/11 13:52:40;;;;;;;22.50;13.20;;;;;;;;;;5012981;28;94405;-68
2022/03/11 13:55:10;;;;;;;25.40;14.65;;;;;;;;;;5007921;28;93385;-70
2022/03/11 13:57:40;;;;;;;19.60;14.52;;;;;;;;;;5012862;28;93245;-68
2022/03/11 14:00:17;;;;;;;25.98;14.02;;;;;;;;;;5011772;28;93338;-68
2022/03/11 14:02:44;;;;;;;20.27;13.98;;;;;;;;;;5011957;28;93070;-67
2022/03/11 14:05:19;;;;;;;15.77;12.10;;;;;;;;;;5011643;28;95670;-68
2022/03/11 14:07:47;;;;;;;21.55;13.95;;;;;;;;;;5012085;28;93007;-68
2022/03/11 14:10:17;;;;;;;18.02;14.07;;;;;;;;;;5014849;28;94530;-68
2022/03/11 14:12:44;;;;;;;16.10;12.60;;;;;;;;;;5013063;28;93365;-67
2022/03/11 14:15:12;;;;;;;18.30;14.38;;;;;;;;;;5014740;28;95066;-68
2022/03/11 14:17:38;;;;;;;20.17;12.25;;;;;;;;;;5013224;28;94813;-67
2022/03/11 14:20:06;;;;;;;17.42;13.43;;;;;;;;;;5013661;28;94290;-68
2022/03/11 14:22:32;;;;;;;19.02;13.35;;;;;;;;;;5014307;28;93060;-68
2022/03/11 14:24:59;;;;;;;13.90;11.40;;;;;;;;;;5013514;28;93978;-68
2022/03/11 14:27:25;;;;;;;19.95;13.93;;;;;;;;;;5015033;28;92493;-68